Latest Weather Observations for Glen Innes Airport

IDN60801

Issued at 12:42 pm EDT Thursday 24 October 2019 (issued every 10 minutes, with the page automatically refreshed every 10 minutes)

About weather observations | Map of weather stations | Latest weather observations for NSW | Other Formats
Station Details ID: 056243 Name: GLEN INNES AIRPORT AWS Lat: -29.68 Lon: 151.69 Height: 1044.3 m
Data from the previous 72 hours. | See also: Recent months at Glen Innes Airport
Date/Time
EDT
Temp
°C
App
Temp
°C
Dew
Point
°C
Rel
Hum
%
Delta-T
°C
Wind Press
QNH
hPa
Press
MSL
hPa
Rain since
9am
mm
Dir  Spd
km/h
Gust
km/h
Spd
kts
Gust
kts
24/12:30pm 23.0 19.1 1.4 24 10.6 SW 11 17 6 9 1023.9 1021.2 0.0
24/12:00pm 23.2 19.3 3.2 27 10.1 WSW 13 22 7 12 1024.1 1021.4 0.0
24/11:32am 22.1 17.4 3.3 29 9.5 WNW 17 28 9 15 1024.6 1021.9 0.0
24/11:30am 22.6 17.6 3.7 29 9.7 WNW 19 28 10 15 1024.6 1021.9 0.0
24/11:12am 21.8 17.5 3.5 30 9.3 W 15 22 8 12 1024.8 1022.1 0.0
24/11:00am 22.0 16.9 4.1 31 9.1 W 20 32 11 17 1024.9 1022.2 0.0
24/10:54am 22.2 17.6 3.8 30 9.4 WSW 17 28 9 15 1024.9 1022.2 0.0
24/10:34am 20.6 15.5 3.3 32 8.7 WNW 19 28 10 15 1025.0 1022.3 0.0
24/10:30am 20.7 16.0 3.4 32 8.7 W 17 28 9 15 1025.1 1022.4 0.0
24/10:25am 20.7 15.7 3.4 32 8.7 W 19 28 10 15 1025.1 1022.4 0.0
24/10:00am 19.6 15.3 3.3 34 8.1 WNW 15 24 8 13 1025.3 1022.6 0.0
24/09:30am 18.8 14.5 3.0 35 7.8 WNW 15 22 8 12 1025.3 1022.6 0.0
24/09:00am 18.1 13.6 2.4 35 7.6 WNW 15 20 8 11 1025.3 1022.6 0.0
24/08:42am 17.3 13.6 2.5 37 7.1 WNW 11 17 6 9 1025.3 1022.6 0.0
24/08:30am 16.6 14.7 2.6 39 6.7 NNE 2 9 1 5 1025.1 1022.4 0.0
24/08:00am 14.2 13.4 6.3 59 4.0 CALM 0 0 0 0 1024.9 1022.2 0.0
24/07:30am 10.7 8.5 6.1 73 2.3 E 7 9 4 5 1024.5 1021.8 0.0
24/07:00am 7.5 5.2 5.5 87 0.9 ESE 7 9 4 5 1024.1 1021.4 0.0
24/06:30am 4.9 2.3 3.2 89 0.8 ESE 6 7 3 4 1023.8 1021.1 0.0
24/06:00am 4.9 1.7 2.9 87 0.9 E 9 13 5 7 1023.6 1020.9 0.0
24/05:30am 5.3 1.4 3.6 89 0.8 E 13 13 7 7 1023.5 1020.7 0.0
24/05:00am 4.1 0.7 1.8 85 1.0 ESE 9 11 5 6 1023.3 1020.5 0.0
24/04:30am 5.1 2.2 2.5 83 1.1 ESE 7 9 4 5 1023.3 1020.5 0.0
24/04:00am 6.4 3.8 4.4 87 0.9 SE 7 9 4 5 1023.4 1020.6 0.0
24/03:30am 6.0 2.5 3.7 85 1.0 SE 11 15 6 8 1023.6 1020.9 0.0
24/03:00am 7.3 4.0 4.8 84 1.2 SE 11 13 6 7 1023.8 1021.1 0.0
24/02:30am 5.4 2.1 2.4 81 1.3 SE 9 11 5 6 1024.0 1021.3 0.0
24/02:00am 6.8 4.4 4.3 84 1.1 SE 6 9 3 5 1024.3 1021.5 0.0
24/01:30am 7.4 5.1 4.9 84 1.2 SE 6 7 3 4 1024.7 1022.0 0.0
24/01:00am 9.8 9.0 6.3 79 1.7 CALM 0 0 0 0 1025.0 1022.3 0.0
24/12:30am 10.9 8.9 7.0 77 2.0 NE 7 9 4 5 1025.3 1022.6 0.0
24/12:00am 10.2 7.3 6.4 77 1.9 SSE 11 13 6 7 1025.4 1022.7 0.0
 
Date/Time
EDT
Temp
°C
App
Temp
°C
Dew
Point
°C
Rel
Hum
%
Delta-T
°C
Wind Press
QNH
hPa
Press
MSL
hPa
Rain since
9am
mm
Dir  Spd
km/h
Gust
km/h
Spd
kts
Gust
kts
23/11:30pm 10.3 7.6 5.5 72 2.3 ESE 9 11 5 6 1025.4 1022.7 0.0
23/11:00pm 11.4 8.1 6.5 72 2.4 SSE 13 15 7 8 1025.6 1022.9 0.0
23/10:30pm 12.7 9.4 6.3 65 3.2 ESE 13 15 7 8 1025.6 1022.9 0.0
23/10:00pm 13.1 9.5 5.0 58 4.0 ESE 13 17 7 9 1025.6 1022.9 0.0
23/09:30pm 13.3 9.3 2.8 49 4.9 ESE 13 13 7 7 1025.6 1022.9 0.0
23/09:00pm 14.4 10.0 0.3 38 6.3 E 13 15 7 8 1025.4 1022.7 0.0
23/08:30pm 16.0 11.5 -0.2 33 7.3 E 13 15 7 8 1024.8 1022.1 0.0
23/08:00pm 17.9 13.1 0.1 30 8.2 NE 15 20 8 11 1024.6 1021.9 0.0
23/07:30pm 19.1 13.3 -0.3 27 9.0 NE 20 26 11 14 1024.0 1021.3 0.0
23/07:00pm 20.1 14.7 -1.7 23 9.8 ENE 17 24 9 13 1023.4 1020.6 0.0
23/06:30pm 21.9 16.7 -2.7 19 11.1 NNE 15 22 8 12 1022.9 1020.2 0.0
23/06:00pm 22.4 17.5 -3.8 17 11.6 NNE 13 17 7 9 1022.7 1020.0 0.0
23/05:30pm 23.9 19.0 -3.4 16 12.3 NE 13 20 7 11 1022.5 1019.7 0.0
23/05:00pm 23.8 17.9 -5.3 14 12.6 NNE 17 30 9 16 1022.6 1019.8 0.0
23/04:30pm 24.5 19.7 -5.7 13 13.1 ESE 11 20 6 11 1022.5 1019.7 0.0
23/04:00pm 24.5 19.3 -5.7 13 13.1 SE 13 20 7 11 1022.7 1020.0 0.0
23/03:30pm 25.4 19.9 -5.0 13 13.5 ENE 15 28 8 15 1022.9 1020.2 0.0
23/03:00pm 25.3 19.8 -5.1 13 13.4 E 15 28 8 15 1023.5 1020.7 0.0
23/02:30pm 23.3 18.1 -6.6 13 12.7 ENE 13 20 7 11 1023.8 1021.1 0.0
23/02:00pm 23.5 18.4 -5.5 14 12.5 N 13 24 7 13 1024.3 1021.5 0.0
23/01:30pm 23.3 17.0 -5.7 14 12.5 E 19 26 10 14 1024.7 1022.0 0.0
23/01:00pm 23.7 18.6 -5.3 14 12.6 ESE 13 24 7 13 1025.1 1022.4 0.0
23/12:30pm 24.0 17.2 -5.1 14 12.8 ESE 22 35 12 19 1025.5 1022.8 0.0
23/12:00pm 22.8 18.0 -6.1 14 12.2 SE 11 20 6 11 1025.9 1023.2 0.0
23/11:30am 22.9 17.3 -6.0 14 12.3 ESE 15 30 8 16 1026.4 1023.7 0.0
23/11:00am 22.1 16.7 -8.6 12 12.3 SE 13 24 7 13 1026.8 1024.1 0.0
23/10:30am 20.9 15.8 -5.0 17 11.1 ENE 13 20 7 11 1027.1 1024.5 0.0
23/10:00am 20.1 14.9 -5.7 17 10.7 ENE 13 22 7 12 1027.4 1024.7 0.0
23/09:30am 18.8 14.8 -2.2 24 9.3 ENE 9 15 5 8 1027.4 1024.7 0.0
23/09:00am 17.7 13.5 -4.3 22 9.2 ESE 9 15 5 8 1027.2 1024.6 0.0
23/08:30am 15.5 11.1 0.5 36 6.8 SE 13 15 7 8 1027.0 1024.4 0.0
23/08:00am 13.0 9.5 3.7 53 4.4 SE 11 15 6 8 1026.8 1024.1 0.0
23/07:30am 9.6 7.2 7.0 84 1.3 SE 9 13 5 7 1026.6 1023.9 0.0
23/07:00am 6.8 3.9 6.4 97 0.2 ESE 11 13 6 7 1026.2 1023.6 0.0
23/06:56am 6.8 3.5 6.4 97 0.2 ESE 13 15 7 8 1026.2 1023.6 0.0
23/06:50am 6.5 3.1 6.1 97 0.2 E 13 15 7 8 1026.2 1023.6 0.0
23/06:30am 5.6 2.8 5.2 97 0.2 ESE 9 13 5 7 1026.0 1023.3 0.0
23/06:00am 6.6 3.3 6.2 97 0.2 ESE 13 15 7 8 1025.9 1023.2 0.0
23/05:34am 7.1 3.9 6.7 97 0.2 ESE 13 17 7 9 1025.6 1022.9 0.0
23/05:30am 7.1 3.9 6.7 97 0.2 SE 13 19 7 10 1025.6 1022.9 0.0
23/05:00am 7.4 5.0 7.0 97 0.2 ESE 9 13 5 7 1025.3 1022.6 0.0
23/04:30am 8.2 4.4 7.6 96 0.3 SE 17 20 9 11 1025.3 1022.6 0.0
23/04:14am 8.4 4.3 7.8 96 0.3 SE 19 22 10 12 1025.3 1022.6 0.0
23/04:00am 8.8 5.6 8.4 97 0.2 SE 15 20 8 11 1025.4 1022.7 0.0
23/03:47am 8.6 5.3 8.0 96 0.3 SE 15 17 8 9 1025.3 1022.6 0.0
23/03:30am 8.2 4.7 7.4 95 0.4 ESE 15 19 8 10 1025.1 1022.4 0.0
23/03:00am 9.1 7.3 8.0 93 0.6 ESE 7 11 4 6 1025.4 1022.7 0.0
23/02:30am 9.8 7.0 8.6 92 0.6 SE 13 19 7 10 1025.6 1022.9 0.0
23/02:01am 10.3 6.8 8.9 91 0.7 SE 17 22 9 12 1025.6 1022.9 0.0
23/02:00am 10.4 7.0 9.2 92 0.6 SE 17 22 9 12 1025.6 1022.9 0.0
23/01:30am 10.6 8.0 9.2 91 0.7 SE 13 20 7 11 1026.0 1023.3 0.0
23/01:00am 10.8 7.5 9.4 91 0.7 SE 17 20 9 11 1026.7 1024.0 0.0
23/12:30am 10.7 8.0 9.1 90 0.8 SE 13 17 7 9 1027.0 1024.4 0.0
23/12:12am 10.7 8.5 9.5 92 0.6 SE 11 17 6 9 1027.1 1024.5 0.0
23/12:00am 10.3 8.4 8.9 91 0.7 SE 9 13 5 7 1027.2 1024.6 0.0
 
Date/Time
EDT
Temp
°C
App
Temp
°C
Dew
Point
°C
Rel
Hum
%
Delta-T
°C
Wind Press
QNH
hPa
Press
MSL
hPa
Rain since
9am
mm
Dir  Spd
km/h
Gust
km/h
Spd
kts
Gust
kts
22/11:30pm 10.3 7.7 7.9 85 1.2 ESE 11 15 6 8 1027.1 1024.5 0.0
22/11:00pm 10.4 7.8 7.8 84 1.3 ESE 11 13 6 7 1027.1 1024.5 0.0
22/10:30pm 11.8 8.9 8.1 78 1.9 E 13 15 7 8 1027.0 1024.4 0.0
22/10:00pm 12.8 9.2 8.3 74 2.4 ESE 17 20 9 11 1026.8 1024.1 0.0
22/09:30pm 13.4 10.1 8.0 70 2.8 E 15 22 8 12 1026.8 1024.1 0.0
22/09:00pm 13.8 10.2 6.7 62 3.6 E 15 17 8 9 1026.7 1024.0 0.0
22/08:30pm 15.1 10.7 6.4 56 4.5 E 19 24 10 13 1026.5 1023.8 0.0
22/08:00pm 15.9 11.1 5.8 51 5.1 E 20 26 11 14 1026.1 1023.5 0.0
22/07:30pm 16.7 11.1 5.6 48 5.7 E 24 32 13 17 1025.7 1023.0 0.0
22/07:00pm 17.8 11.4 5.4 44 6.3 E 28 35 15 19 1025.0 1022.3 0.0
22/06:30pm 19.2 13.4 4.2 37 7.6 E 24 32 13 17 1024.5 1021.8 0.0
22/06:00pm 21.7 16.5 3.4 30 9.2 E 20 28 11 15 1023.9 1021.2 0.0
22/05:30pm 21.2 15.4 2.5 29 9.3 E 22 32 12 17 1023.6 1020.9 0.0
22/05:00pm 22.1 17.7 2.8 28 9.6 NE 15 20 8 11 1023.3 1020.5 0.0
22/04:30pm 21.7 18.8 2.4 28 9.6 SE 7 11 4 6 1023.3 1020.5 0.0
22/04:00pm 22.8 17.9 2.3 26 10.2 NE 17 26 9 14 1023.1 1020.4 0.0
22/03:30pm 22.2 19.7 1.8 26 10.0 ENE 4 9 2 5 1023.4 1020.6 0.0
22/03:00pm 23.0 20.2 3.0 27 10.1 ENE 7 11 4 6 1023.7 1021.0 0.0
22/02:30pm 23.6 19.3 3.0 26 10.5 NNE 15 20 8 11 1023.9 1021.2 0.0
22/02:00pm 22.3 19.3 0.8 24 10.3 WNW 6 11 3 6 1024.4 1021.7 0.0
22/01:30pm 22.3 19.1 2.9 28 9.8 NNE 9 26 5 14 1024.7 1022.0 0.0
22/01:00pm 21.2 17.1 2.0 28 9.4 NW 13 19 7 10 1025.1 1022.4 0.0
22/12:30pm 20.0 15.7 3.3 33 8.3 W 15 28 8 15 1025.6 1022.9 0.0
22/12:00pm 20.6 17.6 4.2 34 8.3 NNE 9 19 5 10 1026.0 1023.3 0.0
22/11:30am 20.2 16.1 4.3 35 8.1 WSW 15 26 8 14 1026.5 1023.8 0.0
22/11:00am 19.0 15.3 4.7 39 7.2 W 13 19 7 10 1026.9 1024.3 0.0
22/10:30am 18.6 16.4 6.1 44 6.5 ENE 7 13 4 7 1027.2 1024.6 0.0
22/10:00am 16.5 14.3 5.2 47 5.7 SSW 6 13 3 7 1027.5 1024.8 0.0
22/09:30am 15.2 12.6 6.2 55 4.6 ESE 9 15 5 8 1027.7 1025.0 0.0
22/09:00am 13.5 10.3 6.8 64 3.4 ESE 13 17 7 9 1027.7 1025.0 0.0
22/08:30am 11.4 7.7 6.5 72 2.5 ESE 15 17 8 9 1027.4 1024.7 0.0
22/08:00am 9.3 5.9 7.7 90 0.8 ESE 15 17 8 9 1027.2 1024.6 0.0
22/07:43am 7.9 4.9 7.5 97 0.2 ESE 13 15 7 8 1027.1 1024.5 0.0
22/07:30am 7.2 3.6 6.8 97 0.2 SE 15 20 8 11 1027.0 1024.4 0.0
22/07:12am 6.6 2.5 6.0 96 0.3 SE 17 22 9 12 1026.9 1024.3 0.0
22/07:09am 6.7 2.6 6.1 96 0.3 SE 17 22 9 12 1026.9 1024.3 0.0
22/07:00am 6.7 3.0 6.1 96 0.3 SE 15 19 8 10 1026.8 1024.1 0.0
22/06:30am 6.0 1.8 5.6 97 0.2 ESE 17 19 9 10 1026.5 1023.8 0.0
22/06:00am 5.3 1.3 4.7 96 0.3 SE 15 17 8 9 1026.2 1023.6 0.0
22/05:30am 5.7 1.7 5.1 96 0.3 ESE 15 17 8 9 1026.1 1023.5 0.0
22/05:00am 5.5 1.5 4.8 95 0.3 ESE 15 17 8 9 1025.9 1023.2 0.0
22/04:30am 5.4 1.7 4.5 94 0.4 SE 13 15 7 8 1025.9 1023.2 0.0
22/04:00am 5.4 2.0 4.1 91 0.6 ESE 11 13 6 7 1025.9 1023.2 0.0
22/03:30am 7.1 3.3 6.0 93 0.5 SE 15 17 8 9 1025.9 1023.2 0.0
22/03:00am 6.9 3.5 5.8 93 0.5 SE 13 17 7 9 1026.2 1023.6 0.0
22/02:30am 6.8 3.6 5.3 90 0.7 ESE 11 15 6 8 1026.4 1023.7 0.0
22/02:00am 6.9 3.1 5.7 92 0.6 ESE 15 19 8 10 1026.5 1023.8 0.0
22/01:30am 7.4 4.0 5.7 89 0.8 SE 13 15 7 8 1026.9 1024.3 0.0
22/01:00am 7.8 4.0 5.8 87 1.0 SE 15 17 8 9 1027.1 1024.5 0.0
22/12:30am 8.0 4.6 5.8 86 1.1 SE 13 19 7 10 1027.2 1024.6 0.0
22/12:00am 8.5 4.7 5.8 83 1.3 ESE 15 17 8 9 1027.4 1024.7 0.0
 
Date/Time
EDT
Temp
°C
App
Temp
°C
Dew
Point
°C
Rel
Hum
%
Delta-T
°C
Wind Press
QNH
hPa
Press
MSL
hPa
Rain since
9am
mm
Dir  Spd
km/h
Gust
km/h
Spd
kts
Gust
kts
21/11:30pm 8.3 5.2 5.4 82 1.4 ESE 11 15 6 8 1027.2 1024.6 0.0
21/11:00pm 9.2 5.4 5.8 79 1.6 E 15 19 8 10 1027.4 1024.7 0.0
21/10:30pm 9.9 6.2 6.1 77 1.9 E 15 22 8 12 1027.5 1024.8 0.0
21/10:00pm 10.2 6.6 5.2 71 2.4 E 13 19 7 10 1027.4 1024.7 0.0
21/09:30pm 11.6 7.4 5.7 67 2.9 ESE 17 22 9 12 1027.2 1024.6 0.0
21/09:00pm 12.5 7.2 5.0 60 3.6 ENE 22 30 12 16 1027.1 1024.5 0.0
21/08:30pm 13.6 8.5 4.2 53 4.6 E 20 32 11 17 1026.8 1024.1 0.0
21/08:00pm 14.3 9.4 4.0 50 5.0 ENE 19 28 10 15 1026.5 1023.8 0.0
21/07:30pm 15.1 9.4 3.0 44 5.8 E 22 32 12 17 1025.9 1023.2 0.0
21/07:00pm 16.1 10.3 2.2 39 6.6 E 22 28 12 15 1025.5 1022.8 0.0
21/06:30pm 17.3 11.8 2.1 36 7.3 E 20 26 11 14 1025.1 1022.4 0.0
21/06:00pm 18.1 12.6 1.6 33 7.8 E 20 26 11 14 1024.9 1022.2 0.0
21/05:30pm 18.7 14.9 1.7 32 8.1 ESE 11 19 6 10 1024.6 1021.9 0.0
21/05:00pm 19.1 14.1 1.1 30 8.5 E 17 26 9 14 1024.4 1021.7 0.0
21/04:30pm 19.6 14.4 0.1 27 9.1 E 17 28 9 15 1024.3 1021.5 0.0
21/04:00pm 20.9 17.3 0.7 26 9.6 WSW 9 17 5 9 1024.4 1021.7 0.0
21/03:30pm 20.0 15.7 1.0 28 9.1 E 13 20 7 11 1024.6 1021.9 0.0
21/03:00pm 19.4 14.6 0.4 28 8.9 SE 15 30 8 16 1024.9 1022.2 0.0
21/02:30pm 18.8 13.6 -0.1 28 8.7 SSE 17 30 9 16 1025.3 1022.6 0.0
21/02:00pm 19.4 15.4 0.4 28 8.9 ESE 11 26 6 14 1025.6 1022.9 0.0
21/01:30pm 19.5 16.0 1.0 29 8.8 SSE 9 22 5 12 1025.9 1023.2 0.0
21/01:00pm 18.6 14.0 -1.3 26 8.9 SE 13 22 7 12 1026.1 1023.5 0.0

Other formats

Comma delimited format used in spreadsheet applications
http://www.bom.gov.au/fwo/IDN60801/IDN60801.94588.axf

JavaScript Object Notation format (JSON) in row-major order
http://www.bom.gov.au/fwo/IDN60801/IDN60801.94588.json

Data quality

Most of these data are generated automatically and are frequently updated. Quality checks on data are not normally performed. It is possible for incorrect values to appear. Refer to information at About Latest Weather Observations and please check the disclaimer before using these data.